createdAt,value
2023-02-13T00:00:47.739Z,1.35
2023-02-13T00:01:50.257Z,1.65
2023-02-13T00:02:53.719Z,1.77
2023-02-13T00:04:03.115Z,1.88
2023-02-13T00:05:06.653Z,1.70
2023-02-13T00:06:09.168Z,1.55
2023-02-13T00:07:12.779Z,1.70
2023-02-13T00:08:22.117Z,2.15
2023-02-13T00:09:25.529Z,1.77
2023-02-13T00:10:35.144Z,1.50
2023-02-13T00:11:39.025Z,2.00
2023-02-13T00:12:41.649Z,2.67
2023-02-13T00:13:45.089Z,1.70
2023-02-13T00:14:48.897Z,1.90
2023-02-13T00:16:04.179Z,1.70
2023-02-13T00:17:06.962Z,1.40
2023-02-13T00:18:10.405Z,1.75
2023-02-13T00:19:12.985Z,1.88
2023-02-13T00:20:16.535Z,1.83
2023-02-13T00:21:25.121Z,1.50
2023-02-13T00:22:28.599Z,1.95
2023-02-13T00:23:32.164Z,1.90
2023-02-13T00:24:35.715Z,1.70
2023-02-13T00:25:39.573Z,1.90
2023-02-13T00:26:49.168Z,1.40
2023-02-13T00:27:51.952Z,2.10
2023-02-13T00:28:55.537Z,1.75
2023-02-13T00:29:59.460Z,1.42
2023-02-13T00:31:06.913Z,1.80
2023-02-13T00:32:16.159Z,1.67
2023-02-13T00:33:19.649Z,1.70
2023-02-13T00:34:42.099Z,1.63
2023-02-13T00:35:45.604Z,1.92
2023-02-13T00:36:55.100Z,2.13
2023-02-13T00:37:58.507Z,2.38
2023-02-13T00:39:01.075Z,1.80
2023-02-13T00:40:04.628Z,2.10
2023-02-13T00:41:07.544Z,1.63
2023-02-13T00:42:17.118Z,1.70
2023-02-13T00:43:20.476Z,2.00
2023-02-13T00:44:24.707Z,1.65
2023-02-13T00:45:28.550Z,1.70
2023-02-13T00:46:32.003Z,1.80
2023-02-13T00:47:41.154Z,2.78
2023-02-13T00:48:44.666Z,1.88
2023-02-13T00:49:47.456Z,2.10
2023-02-13T00:50:52.462Z,2.35
2023-02-13T00:51:55.905Z,1.77
2023-02-13T00:53:05.132Z,1.80
2023-02-13T00:54:15.111Z,2.20
2023-02-13T00:55:17.707Z,1.60
2023-02-13T00:56:21.142Z,1.92
2023-02-13T00:57:23.733Z,1.35
2023-02-13T00:58:27.170Z,2.10
2023-02-13T00:59:36.107Z,1.63
2023-02-13T01:00:41.026Z,2.13
2023-02-13T01:01:43.592Z,1.95
2023-02-13T01:02:47.884Z,1.60
2023-02-13T01:03:50.477Z,2.13
2023-02-13T01:05:00.147Z,1.52
2023-02-13T01:06:02.651Z,1.90
2023-02-13T01:07:06.120Z,1.80
2023-02-13T01:08:08.688Z,1.83
2023-02-13T01:09:19.104Z,1.80
2023-02-13T01:10:21.736Z,1.90
2023-02-13T01:11:25.246Z,2.00
2023-02-13T01:12:27.749Z,1.80
2023-02-13T01:13:31.190Z,1.60
2023-02-13T01:14:40.175Z,1.83
2023-02-13T01:15:44.951Z,2.10
2023-02-13T01:16:47.567Z,1.85
2023-02-13T01:17:51.058Z,2.10
2023-02-13T01:18:53.603Z,2.25
2023-02-13T01:20:03.127Z,2.25
2023-02-13T01:21:06.857Z,2.35
2023-02-13T01:22:10.700Z,2.10
2023-02-13T01:23:13.719Z,2.38
2023-02-13T01:24:17.213Z,2.08
2023-02-13T01:25:26.185Z,2.05
2023-02-13T01:26:29.626Z,1.80
2023-02-13T01:27:32.500Z,2.40
2023-02-13T01:28:36.736Z,1.42
2023-02-13T01:29:39.254Z,2.17
2023-02-13T01:30:49.132Z,2.10
2023-02-13T01:31:59.170Z,2.00
2023-02-13T01:33:02.662Z,1.88
2023-02-13T01:34:18.136Z,2.00
2023-02-13T01:35:35.154Z,2.15
2023-02-13T01:36:38.587Z,1.80
2023-02-13T01:37:41.171Z,1.92
2023-02-13T01:38:44.860Z,2.40
2023-02-13T01:39:47.815Z,2.25
2023-02-13T01:40:59.496Z,2.20
2023-02-13T01:42:09.096Z,2.55
2023-02-13T01:43:13.883Z,2.55
2023-02-13T01:44:34.963Z,2.33
2023-02-13T01:45:38.455Z,2.28
2023-02-13T01:46:50.292Z,2.42
2023-02-13T01:47:56.631Z,2.65
2023-02-13T01:49:04.412Z,2.25
2023-02-13T01:50:10.269Z,2.40
2023-02-13T01:51:14.099Z,2.50
2023-02-13T01:52:25.136Z,2.35
2023-02-13T01:53:29.664Z,2.58
2023-02-13T01:54:34.235Z,2.60
2023-02-13T01:55:39.050Z,2.67
2023-02-13T01:56:44.525Z,2.45
2023-02-13T01:57:57.148Z,2.83
2023-02-13T01:59:08.122Z,2.97
2023-02-13T02:00:11.693Z,3.00
2023-02-13T02:01:15.207Z,2.50
2023-02-13T02:02:18.396Z,2.42
2023-02-13T02:03:33.173Z,2.60
2023-02-13T02:04:36.950Z,2.92
2023-02-13T02:05:40.932Z,3.03
2023-02-13T02:06:46.949Z,2.47
2023-02-13T02:07:50.606Z,3.35
2023-02-13T02:09:00.192Z,2.88
2023-02-13T02:10:05.691Z,2.95
2023-02-13T02:11:12.768Z,3.17
2023-02-13T02:12:20.149Z,3.00
2023-02-13T02:13:23.165Z,3.33
2023-02-13T02:14:34.102Z,3.45
2023-02-13T02:15:36.632Z,2.97
2023-02-13T02:16:40.050Z,2.50
2023-02-13T02:17:49.177Z,3.22
2023-02-13T02:18:53.938Z,3.28
2023-02-13T02:20:02.649Z,3.80
2023-02-13T02:21:20.066Z,3.40
2023-02-13T02:22:36.489Z,3.40
2023-02-13T02:24:03.145Z,3.05
2023-02-13T02:25:33.839Z,3.60
2023-02-13T02:26:55.823Z,3.00
2023-02-13T02:28:24.187Z,2.70
2023-02-13T02:29:35.577Z,3.35
2023-02-13T02:30:56.900Z,3.45
2023-02-13T02:32:27.598Z,3.03
2023-02-13T02:33:45.130Z,2.70
2023-02-13T02:34:58.195Z,3.50
2023-02-13T02:36:04.732Z,3.30
2023-02-13T02:37:15.651Z,3.00
2023-02-13T02:38:30.834Z,3.05
2023-02-13T02:39:47.130Z,3.30
2023-02-13T02:40:59.352Z,3.30
2023-02-13T02:42:10.652Z,3.50
2023-02-13T02:43:21.132Z,3.10
2023-02-13T02:44:39.145Z,3.22
2023-02-13T02:45:46.727Z,3.38
2023-02-13T02:47:11.471Z,3.38
2023-02-13T02:48:44.179Z,3.40
2023-02-13T02:50:04.843Z,3.05
2023-02-13T02:51:13.493Z,2.50
2023-02-13T02:52:18.808Z,3.10
2023-02-13T02:53:31.186Z,3.28
2023-02-13T02:55:02.162Z,2.95
2023-02-13T02:56:08.183Z,3.15
2023-02-13T02:57:13.127Z,2.95
2023-02-13T02:58:37.858Z,3.10
2023-02-13T03:00:06.667Z,3.00
2023-02-13T03:01:31.098Z,3.03
2023-02-13T03:02:52.351Z,3.00
2023-02-13T03:04:14.965Z,2.60
2023-02-13T03:05:48.200Z,2.60
2023-02-13T03:06:53.688Z,2.72
2023-02-13T03:07:56.196Z,3.08
2023-02-13T03:09:19.054Z,2.95
2023-02-13T03:10:43.654Z,2.42
2023-02-13T03:12:13.172Z,3.15
2023-02-13T03:13:24.800Z,2.90
2023-02-13T03:14:28.410Z,2.83
2023-02-13T03:15:31.934Z,2.92
2023-02-13T03:16:53.108Z,2.70
2023-02-13T03:18:21.134Z,2.55
2023-02-13T03:19:45.587Z,2.63
2023-02-13T03:21:09.032Z,2.92
2023-02-13T03:22:21.570Z,2.50
2023-02-13T03:23:35.159Z,2.63
2023-02-13T03:24:41.557Z,2.80
2023-02-13T03:25:56.860Z,2.80
2023-02-13T03:27:01.083Z,2.35
2023-02-13T03:28:33.170Z,2.50
2023-02-13T03:30:00.827Z,2.35
2023-02-13T03:31:21.222Z,2.55
2023-02-13T03:32:27.228Z,2.67
2023-02-13T03:33:44.143Z,2.47
2023-02-13T03:35:19.924Z,2.42
2023-02-13T03:37:01.072Z,2.30
2023-02-13T03:38:08.457Z,2.10
2023-02-13T03:39:21.131Z,2.50
2023-02-13T03:40:28.518Z,2.30
2023-02-13T03:41:39.170Z,2.13
2023-02-13T03:42:46.940Z,2.30
2023-02-13T03:43:57.068Z,1.92
2023-02-13T03:45:19.598Z,2.40
2023-02-13T03:46:23.408Z,2.17
2023-02-13T03:47:32.159Z,2.53
2023-02-13T03:48:55.315Z,2.28
2023-02-13T03:50:17.157Z,2.10
2023-02-13T03:51:22.735Z,2.05
2023-02-13T03:52:37.127Z,2.20
2023-02-13T03:53:48.145Z,2.28
2023-02-13T03:55:12.624Z,2.20
2023-02-13T03:56:41.144Z,2.50
2023-02-13T03:58:10.202Z,2.33
2023-02-13T03:59:18.740Z,2.28
2023-02-13T04:00:21.815Z,2.33
2023-02-13T04:01:27.621Z,2.70
2023-02-13T04:02:32.840Z,2.33
2023-02-13T04:03:46.131Z,2.40
2023-02-13T04:04:58.119Z,2.20
2023-02-13T04:06:04.448Z,2.70
2023-02-13T04:07:08.368Z,2.47
2023-02-13T04:08:13.356Z,2.60
2023-02-13T04:09:23.157Z,2.30
2023-02-13T04:10:27.250Z,2.35
2023-02-13T04:11:33.998Z,2.80
2023-02-13T04:12:39.771Z,2.30
2023-02-13T04:13:44.807Z,2.53
2023-02-13T04:14:58.146Z,2.10
2023-02-13T04:16:04.035Z,2.58
2023-02-13T04:17:08.525Z,2.35
2023-02-13T04:18:12.540Z,2.60
2023-02-13T04:19:23.172Z,2.25
2023-02-13T04:20:34.151Z,2.13
2023-02-13T04:21:38.723Z,2.00
2023-02-13T04:22:44.786Z,2.20
2023-02-13T04:23:49.534Z,2.25
2023-02-13T04:24:59.181Z,2.20
2023-02-13T04:26:04.218Z,2.20
2023-02-13T04:27:06.743Z,2.10
2023-02-13T04:28:10.306Z,2.17
2023-02-13T04:29:12.862Z,2.47
2023-02-13T04:30:23.258Z,2.47
2023-02-13T04:31:32.601Z,2.20
2023-02-13T04:32:36.178Z,2.60
2023-02-13T04:33:38.673Z,2.50
2023-02-13T04:34:55.136Z,2.20
2023-02-13T04:36:12.229Z,2.20
2023-02-13T04:37:15.644Z,2.53
2023-02-13T04:38:19.075Z,2.35
2023-02-13T04:39:22.876Z,2.50
2023-02-13T04:40:26.389Z,2.40
2023-02-13T04:41:35.154Z,2.42
2023-02-13T04:42:38.570Z,2.50
2023-02-13T04:43:41.090Z,2.35
2023-02-13T04:44:45.617Z,2.50
2023-02-13T04:45:49.345Z,2.42
2023-02-13T04:46:59.190Z,2.63
2023-02-13T04:48:01.763Z,2.80
2023-02-13T04:49:05.336Z,2.75
2023-02-13T04:50:08.329Z,2.10
2023-02-13T04:51:11.749Z,2.22
2023-02-13T04:52:22.229Z,2.20
2023-02-13T04:53:25.736Z,2.50
2023-02-13T04:54:30.459Z,2.25
2023-02-13T04:55:32.990Z,2.55
2023-02-13T04:56:36.451Z,2.33
2023-02-13T04:57:45.171Z,2.53
2023-02-13T04:58:48.609Z,2.65
2023-02-13T04:59:51.087Z,2.35
2023-02-13T05:00:54.937Z,2.40
2023-02-13T05:01:59.264Z,2.35
2023-02-13T05:03:12.183Z,2.63
2023-02-13T05:04:16.494Z,2.70
2023-02-13T05:05:20.357Z,2.92
2023-02-13T05:06:22.874Z,2.70
2023-02-13T05:07:26.623Z,2.38
2023-02-13T05:08:35.276Z,3.15
2023-02-13T05:09:41.519Z,2.70
2023-02-13T05:10:44.194Z,2.95
2023-02-13T05:11:47.643Z,2.58
2023-02-13T05:12:50.155Z,2.33
2023-02-13T05:14:00.166Z,2.35
2023-02-13T05:15:02.682Z,2.15
2023-02-13T05:16:13.480Z,2.25
2023-02-13T05:17:16.182Z,2.22
2023-02-13T05:18:19.850Z,2.40
2023-02-13T05:19:22.336Z,2.58
2023-02-13T05:20:25.917Z,2.80
2023-02-13T05:21:54.178Z,2.33
2023-02-13T05:23:24.244Z,2.45
2023-02-13T05:24:27.731Z,2.17
2023-02-13T05:25:38.159Z,2.38
2023-02-13T05:26:48.159Z,2.45
2023-02-13T05:27:50.657Z,2.58
2023-02-13T05:29:18.162Z,2.28
2023-02-13T05:30:21.606Z,2.30
2023-02-13T05:31:24.190Z,2.40
2023-02-13T05:32:27.817Z,2.65
2023-02-13T05:33:30.470Z,2.22
2023-02-13T05:34:40.169Z,2.58
2023-02-13T05:35:49.368Z,2.42
2023-02-13T05:36:53.381Z,2.28
2023-02-13T05:37:55.910Z,2.45
2023-02-13T05:39:06.207Z,2.60
2023-02-13T05:40:09.173Z,2.25
2023-02-13T05:41:14.610Z,2.60
2023-02-13T05:42:18.037Z,2.47
2023-02-13T05:43:20.673Z,2.50
2023-02-13T05:44:31.175Z,3.20
2023-02-13T05:45:33.669Z,2.83
2023-02-13T05:46:39.421Z,2.22
2023-02-13T05:47:42.140Z,2.30
2023-02-13T05:48:52.167Z,2.22
2023-02-13T05:49:55.596Z,2.33
2023-02-13T05:50:58.460Z,2.20
2023-02-13T05:52:02.207Z,2.50
2023-02-13T05:53:04.810Z,2.30
2023-02-13T05:54:15.170Z,2.10
2023-02-13T05:55:18.675Z,2.10
2023-02-13T05:56:23.541Z,2.22
2023-02-13T05:57:26.156Z,2.38
2023-02-13T05:58:36.179Z,2.25
2023-02-13T05:59:39.702Z,2.30
2023-02-13T06:00:42.209Z,2.50
2023-02-13T06:01:52.264Z,2.33
2023-02-13T06:02:54.837Z,2.15
2023-02-13T06:03:59.631Z,2.28
2023-02-13T06:05:10.188Z,2.15
2023-02-13T06:06:19.170Z,2.00
2023-02-13T06:07:22.581Z,2.30
2023-02-13T06:08:25.566Z,2.10
2023-02-13T06:09:29.003Z,2.20
2023-02-13T06:10:31.528Z,1.95
2023-02-13T06:11:43.188Z,1.98
2023-02-13T06:12:45.661Z,1.85
2023-02-13T06:13:49.118Z,2.25
2023-02-13T06:14:51.646Z,2.00
2023-02-13T06:16:02.190Z,1.98
2023-02-13T06:17:04.718Z,2.20
2023-02-13T06:18:08.471Z,1.90
2023-02-13T06:19:17.256Z,1.83
2023-02-13T06:20:20.832Z,2.15
2023-02-13T06:21:24.331Z,2.17
2023-02-13T06:22:33.174Z,1.80
2023-02-13T06:23:43.192Z,1.90
2023-02-13T06:24:45.726Z,3.08
2023-02-13T06:25:49.149Z,2.92
2023-02-13T06:26:59.168Z,2.55
2023-02-13T06:28:03.792Z,1.92
2023-02-13T06:29:06.938Z,1.73
2023-02-13T06:30:10.877Z,2.75
2023-02-13T06:31:14.662Z,3.05
2023-02-13T06:32:24.315Z,3.10
2023-02-13T06:33:27.934Z,2.65
2023-02-13T06:34:51.148Z,2.70
2023-02-13T06:35:54.597Z,2.83
2023-02-13T06:36:57.172Z,3.05
2023-02-13T06:38:07.173Z,2.30
2023-02-13T06:39:11.645Z,2.10
2023-02-13T06:40:14.972Z,2.30
2023-02-13T06:41:19.132Z,2.13
2023-02-13T06:42:23.065Z,2.50
2023-02-13T06:43:33.258Z,2.03
2023-02-13T06:44:36.709Z,2.13
2023-02-13T06:45:40.201Z,2.00
2023-02-13T06:46:43.852Z,3.15
2023-02-13T06:47:47.328Z,4.05
2023-02-13T06:48:57.228Z,7.45
2023-02-13T06:49:59.828Z,6.85
2023-02-13T06:51:03.507Z,6.47
2023-02-13T06:52:05.995Z,4.78
2023-02-13T06:53:09.433Z,2.70
2023-02-13T06:54:18.193Z,3.30
2023-02-13T06:55:21.893Z,5.95
2023-02-13T06:56:26.489Z,4.75
2023-02-13T06:57:33.110Z,5.00
2023-02-13T06:58:36.586Z,5.80
2023-02-13T06:59:45.185Z,5.63
2023-02-13T07:00:48.710Z,7.22
2023-02-13T07:01:51.439Z,5.32
2023-02-13T07:02:54.881Z,6.95
2023-02-13T07:04:05.187Z,6.88
2023-02-13T07:05:08.090Z,3.75
2023-02-13T07:06:11.642Z,5.10
2023-02-13T07:07:21.168Z,5.38
2023-02-13T07:08:24.819Z,5.97
2023-02-13T07:09:28.464Z,5.05
2023-02-13T07:10:31.040Z,4.78
2023-02-13T07:11:41.243Z,3.97
2023-02-13T07:12:53.922Z,3.90
2023-02-13T07:14:08.859Z,3.50
2023-02-13T07:15:11.409Z,3.58
2023-02-13T07:16:15.196Z,3.55
2023-02-13T07:17:25.183Z,3.05
2023-02-13T07:18:28.709Z,2.33
2023-02-13T07:19:31.261Z,2.53
2023-02-13T07:20:41.193Z,2.42
2023-02-13T07:21:44.698Z,3.28
2023-02-13T07:22:54.199Z,2.83
2023-02-13T07:23:57.630Z,2.90
2023-02-13T07:25:00.244Z,2.90
2023-02-13T07:26:10.189Z,2.97
2023-02-13T07:27:19.194Z,2.83
2023-02-13T07:28:23.988Z,2.80
2023-02-13T07:29:26.555Z,2.50
2023-02-13T07:30:30.341Z,2.97
2023-02-13T07:31:41.233Z,2.97
2023-02-13T07:32:51.202Z,2.97
2023-02-13T07:33:55.748Z,2.28
2023-02-13T07:35:19.166Z,2.67
2023-02-13T07:36:22.590Z,2.10
2023-02-13T07:37:32.181Z,2.25
2023-02-13T07:38:35.918Z,2.33
2023-02-13T07:39:39.032Z,2.80
2023-02-13T07:40:42.504Z,2.72
2023-02-13T07:41:45.161Z,2.00
2023-02-13T07:42:55.213Z,2.45
2023-02-13T07:43:59.053Z,2.50
2023-02-13T07:45:05.747Z,2.05
2023-02-13T07:46:09.275Z,2.10
2023-02-13T07:47:12.790Z,2.33
2023-02-13T07:48:23.204Z,2.58
2023-02-13T07:49:27.120Z,2.35
2023-02-13T07:50:30.594Z,2.17
2023-02-13T07:51:34.119Z,2.55
2023-02-13T07:52:45.229Z,2.28
2023-02-13T07:53:48.658Z,2.10
2023-02-13T07:54:52.149Z,2.25
2023-02-13T07:55:56.007Z,2.17
2023-02-13T07:56:58.965Z,2.30
2023-02-13T07:58:09.208Z,2.22
2023-02-13T07:59:14.809Z,2.80
2023-02-13T08:00:18.927Z,2.40
2023-02-13T08:01:21.496Z,2.40
2023-02-13T08:02:24.945Z,2.08
2023-02-13T08:03:35.231Z,2.55
2023-02-13T08:04:44.201Z,2.67
2023-02-13T08:05:49.191Z,2.50
2023-02-13T08:06:52.601Z,2.70
2023-02-13T08:07:55.169Z,2.22
2023-02-13T08:09:19.255Z,2.13
2023-02-13T08:10:40.652Z,2.20
2023-02-13T08:11:56.223Z,2.10
2023-02-13T08:12:59.859Z,1.80
2023-02-13T08:14:03.327Z,2.00
2023-02-13T08:15:15.206Z,2.08
2023-02-13T08:16:18.839Z,2.13
2023-02-13T08:17:22.345Z,2.17
2023-02-13T08:18:25.821Z,1.95
2023-02-13T08:19:35.178Z,2.17
2023-02-13T08:20:38.831Z,2.10
2023-02-13T08:21:42.345Z,2.42
2023-02-13T08:22:45.768Z,2.22
2023-02-13T08:23:52.029Z,2.33
2023-02-13T08:25:02.198Z,2.22
2023-02-13T08:26:05.765Z,2.03
2023-02-13T08:27:09.289Z,1.88
2023-02-13T08:28:11.862Z,2.40
2023-02-13T08:29:15.416Z,2.25
2023-02-13T08:30:27.253Z,2.53
2023-02-13T08:31:30.936Z,2.50
2023-02-13T08:32:42.062Z,2.13
2023-02-13T08:34:04.282Z,2.08
2023-02-13T08:35:28.193Z,2.22
2023-02-13T08:36:31.785Z,2.20
2023-02-13T08:37:35.458Z,1.85
2023-02-13T08:39:49.236Z,2.40
2023-02-13T08:40:51.735Z,2.45
2023-02-13T08:41:55.230Z,1.95
2023-02-13T08:43:01.387Z,2.17
2023-02-13T08:44:04.904Z,2.17
2023-02-13T08:45:17.240Z,2.40
2023-02-13T08:46:22.130Z,2.05
2023-02-13T08:47:25.633Z,2.42
2023-02-13T08:48:29.512Z,2.13
2023-02-13T08:49:33.014Z,2.35
2023-02-13T08:50:43.230Z,2.58
2023-02-13T08:51:53.198Z,2.50
2023-02-13T08:53:03.240Z,2.10
2023-02-13T08:54:06.791Z,2.28
2023-02-13T08:55:10.355Z,2.10
2023-02-13T08:56:20.208Z,2.45
2023-02-13T08:57:23.671Z,2.38
2023-02-13T08:58:27.218Z,2.15
2023-02-13T08:59:30.671Z,3.10
2023-02-13T09:00:33.354Z,2.47
2023-02-13T09:01:45.222Z,2.30
2023-02-13T09:02:48.770Z,2.17
2023-02-13T09:03:52.369Z,2.17
2023-02-13T09:05:01.213Z,2.75
2023-02-13T09:06:04.981Z,2.20
2023-02-13T09:07:15.215Z,1.80
2023-02-13T09:08:19.091Z,2.15
2023-02-13T09:09:22.612Z,2.30
2023-02-13T09:10:26.142Z,2.20
2023-02-13T09:11:29.699Z,2.45
2023-02-13T09:12:39.214Z,2.10
2023-02-13T09:13:42.710Z,2.25
2023-02-13T09:14:54.235Z,2.20
2023-02-13T09:16:03.015Z,1.98
2023-02-13T09:17:14.197Z,2.05
2023-02-13T09:18:17.652Z,2.38
2023-02-13T09:19:28.231Z,1.90
2023-02-13T09:20:30.776Z,2.10
2023-02-13T09:21:41.209Z,1.73
2023-02-13T09:22:44.744Z,2.10
2023-02-13T09:23:48.205Z,1.65
2023-02-13T09:24:51.680Z,2.28
2023-02-13T09:25:55.303Z,2.15
2023-02-13T09:27:05.219Z,1.90
2023-02-13T09:28:08.782Z,1.88
2023-02-13T09:29:12.245Z,2.08
2023-02-13T09:30:23.181Z,2.00
2023-02-13T09:31:33.390Z,2.10
2023-02-13T09:32:37.755Z,2.83
2023-02-13T09:33:41.226Z,2.42
2023-02-13T09:35:05.197Z,1.65
2023-02-13T09:36:09.171Z,1.83
2023-02-13T09:37:19.213Z,1.80
2023-02-13T09:38:22.695Z,1.60
2023-02-13T09:39:25.466Z,2.15
2023-02-13T09:40:31.328Z,1.75
2023-02-13T09:41:36.431Z,1.85
2023-02-13T09:42:46.211Z,2.30
2023-02-13T09:43:51.528Z,1.85
2023-02-13T09:44:56.321Z,1.83
2023-02-13T09:46:01.992Z,1.80
2023-02-13T09:47:06.350Z,1.83
2023-02-13T09:48:23.264Z,1.60
2023-02-13T09:49:29.990Z,1.75
2023-02-13T09:50:35.119Z,1.60
2023-02-13T09:51:38.853Z,1.92
2023-02-13T09:52:50.225Z,1.80
2023-02-13T09:53:55.250Z,1.95
2023-02-13T09:55:05.248Z,1.90
2023-02-13T09:56:11.550Z,1.88
2023-02-13T09:57:17.795Z,2.22
2023-02-13T09:58:32.224Z,1.77
2023-02-13T09:59:41.700Z,2.28
2023-02-13T10:00:46.624Z,1.77
2023-02-13T10:01:50.020Z,1.90
2023-02-13T10:03:04.236Z,1.70
2023-02-13T10:04:22.231Z,1.40
2023-02-13T10:05:30.927Z,1.90
2023-02-13T10:06:35.496Z,1.95
2023-02-13T10:07:41.811Z,1.55
2023-02-13T10:09:12.222Z,1.98
2023-02-13T10:10:27.172Z,2.13
2023-02-13T10:11:43.678Z,1.42
2023-02-13T10:12:52.408Z,1.40
2023-02-13T10:14:07.198Z,1.52
2023-02-13T10:15:17.991Z,1.55
2023-02-13T10:16:23.407Z,1.73
2023-02-13T10:17:30.454Z,1.83
2023-02-13T10:18:46.397Z,1.80
2023-02-13T10:19:59.340Z,1.52
2023-02-13T10:21:05.333Z,1.80
2023-02-13T10:22:20.229Z,1.70
2023-02-13T10:23:28.490Z,1.65
2023-02-13T10:24:41.225Z,2.00
2023-02-13T10:25:48.393Z,1.70
2023-02-13T10:26:52.752Z,1.75
2023-02-13T10:27:57.444Z,1.50
2023-02-13T10:29:27.410Z,1.42
2023-02-13T10:30:39.193Z,1.90
2023-02-13T10:32:11.378Z,1.75
2023-02-13T10:33:21.844Z,1.50
2023-02-13T10:34:28.214Z,1.50
2023-02-13T10:35:47.207Z,1.70
2023-02-13T10:36:57.318Z,1.50
2023-02-13T10:38:01.770Z,2.03
2023-02-13T10:39:19.897Z,1.65
2023-02-13T10:40:23.355Z,1.33
2023-02-13T10:41:36.195Z,1.83
2023-02-13T10:42:42.589Z,1.52
2023-02-13T10:43:51.300Z,1.50
2023-02-13T10:44:58.545Z,1.40
2023-02-13T10:46:08.700Z,1.60
2023-02-13T10:47:23.195Z,1.63
2023-02-13T10:48:38.000Z,1.60
2023-02-13T10:49:48.158Z,1.65
2023-02-13T10:51:04.216Z,1.70
2023-02-13T10:52:13.470Z,1.55
2023-02-13T10:53:27.259Z,1.48
2023-02-13T10:54:35.466Z,1.33
2023-02-13T10:55:55.721Z,1.73
2023-02-13T10:57:03.401Z,1.83
2023-02-13T10:58:11.062Z,2.10
2023-02-13T10:59:27.197Z,1.83
2023-02-13T11:00:33.594Z,1.33
2023-02-13T11:01:40.218Z,2.10
2023-02-13T11:02:43.639Z,1.90
2023-02-13T11:03:48.051Z,2.22
2023-02-13T11:04:58.202Z,1.45
2023-02-13T11:06:07.006Z,1.98
2023-02-13T11:07:12.376Z,1.38
2023-02-13T11:08:19.213Z,1.63
2023-02-13T11:09:29.206Z,1.80
2023-02-13T11:10:32.599Z,1.60
2023-02-13T11:11:37.076Z,3.65
2023-02-13T11:12:40.488Z,2.45
2023-02-13T11:13:43.884Z,1.60
2023-02-13T11:15:02.188Z,1.48
2023-02-13T11:16:06.689Z,1.67
2023-02-13T11:17:25.199Z,1.40
2023-02-13T11:18:29.610Z,1.73
2023-02-13T11:19:34.884Z,1.42
2023-02-13T11:20:39.699Z,1.42
2023-02-13T11:21:44.408Z,1.70
2023-02-13T11:22:54.265Z,1.42
2023-02-13T11:23:57.808Z,1.90
2023-02-13T11:25:02.783Z,1.17
2023-02-13T11:26:07.915Z,1.52
2023-02-13T11:27:13.937Z,1.50
2023-02-13T11:28:25.298Z,1.65
2023-02-13T11:29:29.708Z,1.77
2023-02-13T11:30:35.442Z,1.70
2023-02-13T11:31:39.728Z,1.55
2023-02-13T11:32:43.339Z,1.50
2023-02-13T11:33:52.248Z,1.40
2023-02-13T11:34:56.230Z,1.80
2023-02-13T11:36:07.964Z,1.80
2023-02-13T11:37:20.387Z,2.00
2023-02-13T11:38:24.341Z,2.10
2023-02-13T11:39:35.218Z,2.15
2023-02-13T11:40:39.123Z,1.90
2023-02-13T11:41:43.671Z,2.13
2023-02-13T11:42:48.694Z,1.52
2023-02-13T11:44:01.313Z,1.65
2023-02-13T11:45:06.549Z,1.73
2023-02-13T11:46:11.913Z,1.63
2023-02-13T11:47:16.223Z,1.40
2023-02-13T11:48:21.838Z,1.95
2023-02-13T11:49:33.220Z,1.80
2023-02-13T11:50:37.812Z,1.75
2023-02-13T11:51:42.252Z,2.17
2023-02-13T11:52:53.186Z,2.55
2023-02-13T11:54:00.977Z,1.67
2023-02-13T11:55:11.255Z,2.00
2023-02-13T11:56:15.460Z,1.60
2023-02-13T11:57:27.250Z,1.52
2023-02-13T11:58:31.989Z,1.88
2023-02-13T11:59:41.145Z,1.95
2023-02-13T12:00:45.037Z,2.30
2023-02-13T12:01:50.380Z,1.88
2023-02-13T12:03:00.634Z,1.30
2023-02-13T12:04:06.084Z,1.38
2023-02-13T12:05:19.887Z,1.58
2023-02-13T12:06:23.626Z,2.05
2023-02-13T12:07:35.202Z,1.52
2023-02-13T12:08:47.341Z,1.33
2023-02-13T12:09:59.234Z,1.48
2023-02-13T12:11:04.640Z,1.55
2023-02-13T12:12:15.240Z,1.55
2023-02-13T12:13:23.835Z,1.77
2023-02-13T12:14:29.223Z,1.23
2023-02-13T12:15:34.598Z,1.65
2023-02-13T12:16:46.246Z,1.58
2023-02-13T12:17:58.392Z,1.30
2023-02-13T12:19:03.022Z,1.55
2023-02-13T12:20:07.485Z,1.80
2023-02-13T12:21:24.630Z,1.45
2023-02-13T12:22:34.983Z,1.80
2023-02-13T12:23:52.232Z,1.40
2023-02-13T12:25:13.840Z,1.80
2023-02-13T12:26:25.366Z,1.70
2023-02-13T12:27:31.412Z,1.58
2023-02-13T12:28:46.297Z,1.88
2023-02-13T12:30:01.377Z,1.60
2023-02-13T12:31:16.351Z,1.30
2023-02-13T12:32:21.462Z,1.45
2023-02-13T12:33:36.576Z,1.58
2023-02-13T12:35:04.236Z,1.42
2023-02-13T12:36:19.392Z,1.70
2023-02-13T12:37:36.641Z,1.50
2023-02-13T12:38:48.257Z,1.63
2023-02-13T12:40:03.198Z,1.48
2023-02-13T12:41:15.976Z,1.70
2023-02-13T12:42:34.240Z,1.90
2023-02-13T12:43:54.117Z,1.65
2023-02-13T12:45:02.457Z,1.45
2023-02-13T12:46:09.552Z,1.30
2023-02-13T12:47:24.259Z,1.30
2023-02-13T12:48:36.449Z,1.55
2023-02-13T12:49:49.055Z,1.30
2023-02-13T12:50:58.510Z,1.63
2023-02-13T12:52:07.105Z,1.58
2023-02-13T12:53:28.927Z,1.58
2023-02-13T12:54:45.530Z,1.55
2023-02-13T12:56:06.012Z,1.38
2023-02-13T12:57:15.745Z,2.92
2023-02-13T12:58:42.241Z,3.90
2023-02-13T12:59:50.320Z,2.58
2023-02-13T13:00:59.932Z,1.58
2023-02-13T13:02:28.458Z,2.00
2023-02-13T13:03:37.500Z,1.70
2023-02-13T13:04:48.845Z,1.75
2023-02-13T13:06:11.999Z,1.65
2023-02-13T13:07:36.266Z,2.63
2023-02-13T13:08:50.343Z,1.80
2023-02-13T13:10:03.268Z,1.98
2023-02-13T13:11:16.084Z,1.73
2023-02-13T13:12:25.855Z,2.17
2023-02-13T13:13:40.293Z,1.90
2023-02-13T13:14:47.087Z,2.20
2023-02-13T13:15:56.131Z,1.83
2023-02-13T13:17:04.045Z,2.00
2023-02-13T13:18:14.699Z,2.05
2023-02-13T13:19:29.262Z,1.60
2023-02-13T13:20:43.629Z,1.50
2023-02-13T13:21:51.473Z,1.58
2023-02-13T13:22:55.121Z,1.58
2023-02-13T13:24:12.640Z,1.70
2023-02-13T13:25:22.120Z,1.95
2023-02-13T13:26:32.159Z,2.08
2023-02-13T13:27:38.121Z,2.50
2023-02-13T13:28:42.887Z,1.98
2023-02-13T13:29:54.414Z,1.60
2023-02-13T13:30:59.956Z,1.58
2023-02-13T13:32:05.324Z,1.90
2023-02-13T13:33:15.823Z,1.73
2023-02-13T13:34:22.704Z,2.00
2023-02-13T13:35:33.286Z,1.98
2023-02-13T13:36:53.267Z,2.00
2023-02-13T13:38:03.553Z,1.85
2023-02-13T13:39:09.013Z,1.42
2023-02-13T13:40:30.323Z,1.65
2023-02-13T13:41:37.402Z,1.83
2023-02-13T13:42:48.246Z,1.70
2023-02-13T13:43:59.476Z,1.90
2023-02-13T13:45:08.955Z,2.58
2023-02-13T13:46:16.903Z,2.03
2023-02-13T13:47:33.263Z,2.83
2023-02-13T13:48:56.282Z,10.27
2023-02-13T13:50:00.724Z,4.97
2023-02-13T13:51:04.450Z,2.03
2023-02-13T13:52:21.521Z,1.83
2023-02-13T13:53:32.446Z,1.90
2023-02-13T13:54:36.177Z,1.50
2023-02-13T13:55:58.363Z,1.73
2023-02-13T13:57:15.785Z,1.73
2023-02-13T13:58:22.174Z,1.48
2023-02-13T13:59:47.283Z,1.80
2023-02-13T14:01:24.465Z,1.60
2023-02-13T14:02:44.618Z,2.03
2023-02-13T14:03:55.313Z,1.70
2023-02-13T14:05:04.085Z,1.92
2023-02-13T14:06:09.400Z,1.55
2023-02-13T14:07:17.249Z,1.92
2023-02-13T14:08:35.471Z,1.98
2023-02-13T14:09:46.269Z,1.70
2023-02-13T14:11:16.393Z,2.00
2023-02-13T14:12:38.749Z,2.03
2023-02-13T14:13:52.340Z,1.60
2023-02-13T14:14:56.308Z,1.60
2023-02-13T14:15:58.918Z,1.60
2023-02-13T14:17:03.426Z,1.67
2023-02-13T14:18:20.827Z,1.80
2023-02-13T14:19:35.257Z,1.73
2023-02-13T14:20:40.947Z,1.85
2023-02-13T14:21:44.726Z,1.75
2023-02-13T14:22:48.282Z,2.53
2023-02-13T14:23:53.497Z,2.63
2023-02-13T14:25:04.275Z,2.25
2023-02-13T14:26:19.556Z,2.13
2023-02-13T14:27:24.314Z,2.40
2023-02-13T14:28:27.881Z,2.10
2023-02-13T14:29:34.129Z,1.88
2023-02-13T14:30:44.414Z,1.73
2023-02-13T14:31:55.837Z,2.30
2023-02-13T14:33:02.166Z,2.15
2023-02-13T14:34:06.451Z,2.17
2023-02-13T14:35:25.314Z,1.88
2023-02-13T14:36:36.405Z,1.92
2023-02-13T14:37:40.751Z,2.83
2023-02-13T14:38:44.215Z,2.30
2023-02-13T14:40:07.590Z,1.63
2023-02-13T14:41:32.280Z,2.10
2023-02-13T14:42:36.459Z,2.00
2023-02-13T14:43:49.706Z,2.28
2023-02-13T14:44:56.395Z,2.13
2023-02-13T14:46:09.371Z,1.67
2023-02-13T14:47:16.594Z,1.92
2023-02-13T14:48:20.235Z,2.03
2023-02-13T14:49:32.274Z,2.25
2023-02-13T14:50:45.817Z,2.22
2023-02-13T14:51:51.994Z,1.70
2023-02-13T14:52:56.152Z,2.35
2023-02-13T14:54:01.550Z,2.10
2023-02-13T14:55:12.915Z,2.05
2023-02-13T14:56:18.963Z,2.20
2023-02-13T14:57:24.332Z,2.08
2023-02-13T14:58:30.028Z,3.28
2023-02-13T14:59:35.340Z,2.30
2023-02-13T15:00:51.295Z,2.45
2023-02-13T15:01:57.205Z,2.25
2023-02-13T15:03:01.712Z,2.83
2023-02-13T15:04:08.079Z,2.75
2023-02-13T15:05:15.357Z,2.35
2023-02-13T15:06:30.300Z,3.22
2023-02-13T15:07:35.311Z,3.55
2023-02-13T15:08:40.474Z,2.40
2023-02-13T15:09:47.165Z,2.22
2023-02-13T15:10:58.641Z,2.22
2023-02-13T15:12:02.233Z,2.35
2023-02-13T15:13:13.277Z,2.63
2023-02-13T15:14:20.581Z,2.45
2023-02-13T15:15:25.715Z,2.60